^^

..:: Storico WU ::..




Lo storico viene creato da WUnderground con i dati che la stazione Meteomincio invia al loro server. L' aggiornamento viene fatto ogni 5 minuti circa, tuttavia possono esserci intervalli pił ampi a causa di errori, interruzioni di servizio o problemi nell' invio tramite FTP.


Storico stazione MeteoMincio
Giorno Sommario per Febbario 28, 2022 Unità:  Inglese    Metrico   Entrambi
Giorno Settimana Mese Anno
  Max: Min: Media:
Temperatura: 55.4 °F 28.4 °F 42.1 °F
Dew Point: 35.6 °F 23 °F 29.8 °F
Umidità: 83% 38% 64%
Velocità vento: 21.1mph 0mph 5.6mph
Raffica: 29.2mph - -
Direzione- - SSW
Pressione: 30.4 in 30.2 in -
Precipitazioni: 0 in    
 
 
Tabulato Dati per Febbario 28, 2022
Ora Temperatura Dew Point Pressione Direzione Velocità vento Raffica Umidità Intensità pioggia (oraria) Info solare Situazione
00:04 35.6 °F 28.4 °F 30.4 in North 1.9 mph 2.5 mph 73% 0 in 0.00 W/m2 unknown
00:09 35.6 °F 28.4 °F 30.4 in North 1.9 mph 2.5 mph 74% 0 in 0.00 W/m2 unknown
00:14 35.6 °F 28.4 °F 30.4 in North 2.5 mph 3.7 mph 74% 0 in 0.00 W/m2 unknown
00:19 35.6 °F 28.4 °F 30.4 in North 3.1 mph 3.7 mph 74% 0 in 0.00 W/m2 unknown
00:24 35.6 °F 28.4 °F 30.4 in North 0.6 mph 3.1 mph 73% 0 in 0.00 W/m2 unknown
00:29 35.6 °F 26.6 °F 30.4 in NW 1.9 mph 2.5 mph 74% 0 in 0.00 W/m2 unknown
00:34 33.8 °F 26.6 °F 30.4 in WNW 1.9 mph 2.5 mph 75% 0 in 0.00 W/m2 unknown
00:39 33.8 °F 26.6 °F 30.4 in WNW 0.6 mph 1.2 mph 76% 0 in 0.00 W/m2 unknown
00:44 33.8 °F 26.6 °F 30.4 in Calm   1.2 mph 76% 0 in 0.00 W/m2 unknown
00:49 33.8 °F 26.6 °F 30.4 in Calm     76% 0 in 0.00 W/m2 unknown
00:54 33.8 °F 26.6 °F 30.4 in NW 1.2 mph 1.9 mph 76% 0 in 0.00 W/m2 unknown
00:59 33.8 °F 26.6 °F 30.4 in NW 1.2 mph 2.5 mph 76% 0 in 0.00 W/m2 unknown
01:04 33.8 °F 26.6 °F 30.4 in NW 1.2 mph 2.5 mph 76% 0 in 0.00 W/m2 unknown
01:09 33.8 °F 26.6 °F 30.4 in Calm   1.9 mph 76% 0 in 0.00 W/m2 unknown
01:14 33.8 °F 26.6 °F 30.4 in Calm     76% 0 in 0.00 W/m2 unknown
01:19 33.8 °F 26.6 °F 30.4 in NNW 1.9 mph 2.5 mph 76% 0 in 0.00 W/m2 unknown
01:24 33.8 °F 26.6 °F 30.4 in North 1.9 mph 2.5 mph 76% 0 in 0.00 W/m2 unknown
01:29 33.8 °F 26.6 °F 30.4 in North 1.2 mph 1.9 mph 76% 0 in 0.00 W/m2 unknown
01:34 35.6 °F 28.4 °F 30.4 in NE 2.5 mph 3.7 mph 76% 0 in 0.00 W/m2 unknown
01:39 35.6 °F 28.4 °F 30.4 in ENE 1.9 mph 3.1 mph 75% 0 in 0.00 W/m2 unknown
01:44 35.6 °F 26.6 °F 30.4 in ENE 0.6 mph 1.9 mph 75% 0 in 0.00 W/m2 unknown
01:49 33.8 °F 26.6 °F 30.4 in NNE 1.9 mph 2.5 mph 76% 0 in 0.00 W/m2 unknown
01:54 33.8 °F 26.6 °F 30.4 in Calm   1.9 mph 76% 0 in 0.00 W/m2 unknown
01:59 33.8 °F 26.6 °F 30.4 in North 1.2 mph 2.5 mph 77% 0 in 0.00 W/m2 unknown
02:04 33.8 °F 26.6 °F 30.4 in East 1.2 mph 2.5 mph 77% 0 in 0.00 W/m2 unknown
02:09 33.8 °F 26.6 °F 30.4 in East 1.9 mph 2.5 mph 77% 0 in 0.00 W/m2 unknown
02:14 33.8 °F 26.6 °F 30.4 in ESE 2.5 mph 3.7 mph 78% 0 in 0.00 W/m2 unknown
02:19 33.8 °F 26.6 °F 30.4 in ESE 1.2 mph 3.1 mph 78% 0 in 0.00 W/m2 unknown
02:24 32 °F 26.6 °F 30.4 in ESE 1.2 mph 1.9 mph 78% 0 in 0.00 W/m2 unknown
02:29 33.8 °F 26.6 °F 30.4 in Calm   1.2 mph 78% 0 in 0.00 W/m2 unknown
02:34 33.8 °F 26.6 °F 30.4 in Calm     78% 0 in 0.00 W/m2 unknown
02:39 33.8 °F 26.6 °F 30.4 in Calm     78% 0 in 0.00 W/m2 unknown
02:44 32 °F 26.6 °F 30.4 in Calm     78% 0 in 0.00 W/m2 unknown
02:49 32 °F 26.6 °F 30.4 in North 1.2 mph 2.5 mph 78% 0 in 0.00 W/m2 unknown
02:54 32 °F 26.6 °F 30.4 in NNW 1.2 mph 2.5 mph 78% 0 in 0.00 W/m2 unknown
02:59 32 °F 26.6 °F 30.4 in NW 1.9 mph 3.1 mph 78% 0 in 0.00 W/m2 unknown
03:04 32 °F 26.6 °F 30.4 in NW 1.9 mph 3.7 mph 78% 0 in 0.00 W/m2 unknown
03:09 32 °F 26.6 °F 30.4 in NW 1.2 mph 3.1 mph 78% 0 in 0.00 W/m2 unknown
03:14 32 °F 24.8 °F 30.4 in West 3.1 mph 3.7 mph 79% 0 in 0.00 W/m2 unknown
03:19 30.2 °F 24.8 °F 30.4 in West 3.1 mph 3.7 mph 81% 0 in 0.00 W/m2 unknown
03:24 30.2 °F 24.8 °F 30.4 in West 1.9 mph 3.1 mph 81% 0 in 0.00 W/m2 unknown
03:29 32 °F 24.8 °F 30.4 in West 1.9 mph 3.7 mph 80% 0 in 0.00 W/m2 unknown
03:34 32 °F 24.8 °F 30.4 in West 1.9 mph 3.1 mph 79% 0 in 0.00 W/m2 unknown
03:39 32 °F 26.6 °F 30.4 in West 2.5 mph 3.7 mph 79% 0 in 0.00 W/m2 unknown
03:44 32 °F 24.8 °F 30.4 in West 3.7 mph 5 mph 78% 0 in 0.00 W/m2 unknown
03:49 30.2 °F 24.8 °F 30.4 in West 3.1 mph 5 mph 79% 0 in 0.00 W/m2 unknown
03:54 30.2 °F 24.8 °F 30.4 in WNW 3.7 mph 5 mph 80% 0 in 0.00 W/m2 unknown
03:59 30.2 °F 24.8 °F 30.4 in WNW 5 mph 6.8 mph 80% 0 in 0.00 W/m2 unknown
04:04 32 °F 24.8 °F 30.4 in NW 5 mph 6.8 mph 79% 0 in 0.00 W/m2 unknown
04:09 32 °F 24.8 °F 30.4 in NW 3.1 mph 5 mph 78% 0 in 0.00 W/m2 unknown
04:14 32 °F 24.8 °F 30.4 in NW 1.9 mph 3.7 mph 78% 0 in 0.00 W/m2 unknown
04:19 32 °F 24.8 °F 30.4 in WNW 1.9 mph 3.7 mph 78% 0 in 0.00 W/m2 unknown
04:24 30.2 °F 24.8 °F 30.4 in WNW 1.9 mph 3.7 mph 79% 0 in 0.00 W/m2 unknown
04:29 30.2 °F 24.8 °F 30.4 in WNW 1.2 mph 3.1 mph 79% 0 in 0.00 W/m2 unknown
04:34 30.2 °F 24.8 °F 30.4 in WNW 0.6 mph 1.9 mph 80% 0 in 0.00 W/m2 unknown
04:39 30.2 °F 24.8 °F 30.4 in WNW 0.6 mph 1.2 mph 80% 0 in 0.00 W/m2 unknown
04:44 30.2 °F 24.8 °F 30.4 in Calm   1.2 mph 80% 0 in 0.00 W/m2 unknown
04:49 30.2 °F 24.8 °F 30.4 in Calm     81% 0 in 0.00 W/m2 unknown
04:54 30.2 °F 24.8 °F 30.4 in Calm     80% 0 in 0.00 W/m2 unknown
04:59 30.2 °F 24.8 °F 30.4 in WNW 0.6 mph 1.9 mph 79% 0 in 0.00 W/m2 unknown
05:04 30.2 °F 24.8 °F 30.4 in WNW 0.6 mph 2.5 mph 80% 0 in 0.00 W/m2 unknown
05:09 30.2 °F 24.8 °F 30.4 in WNW 0.6 mph 1.9 mph 80% 0 in 0.00 W/m2 unknown
05:14 30.2 °F 24.8 °F 30.4 in WNW 1.2 mph 1.2 mph 80% 0 in 0.00 W/m2 unknown
05:19 30.2 °F 24.8 °F 30.4 in WNW 1.2 mph 1.2 mph 80% 0 in 0.00 W/m2 unknown
05:24 30.2 °F 24.8 °F 30.4 in Calm   1.2 mph 81% 0 in 0.00 W/m2 unknown
05:29 30.2 °F 24.8 °F 30.4 in Calm   1.2 mph 81% 0 in 0.00 W/m2 unknown
05:34 30.2 °F 24.8 °F 30.4 in WNW 0.6 mph 1.2 mph 80% 0 in 0.00 W/m2 unknown
05:39 30.2 °F 24.8 °F 30.4 in WNW 1.9 mph 2.5 mph 80% 0 in 0.00 W/m2 unknown
05:44 30.2 °F 24.8 °F 30.3 in WNW 1.9 mph 2.5 mph 80% 0 in 0.00 W/m2 unknown
05:49 30.2 °F 24.8 °F 30.3 in West 1.9 mph 3.1 mph 80% 0 in 0.00 W/m2 unknown
05:54 30.2 °F 24.8 °F 30.3 in West 2.5 mph 3.7 mph 81% 0 in 0.00 W/m2 unknown
05:59 28.4 °F 23 °F 30.3 in WSW 1.9 mph 3.7 mph 82% 0 in 0.00 W/m2 unknown
06:04 28.4 °F 23 °F 30.3 in WSW 2.5 mph 3.7 mph 82% 0 in 0.00 W/m2 unknown
06:09 28.4 °F 23 °F 30.3 in WSW 1.9 mph 3.7 mph 82% 0 in 0.00 W/m2 unknown
06:14 28.4 °F 23 °F 30.3 in WSW 1.9 mph 3.7 mph 82% 0 in 0.00 W/m2 unknown
06:19 28.4 °F 23 °F 30.3 in SW 2.5 mph 3.7 mph 82% 0 in 0.00 W/m2 unknown
06:24 28.4 °F 23 °F 30.3 in SW 3.1 mph 3.7 mph 82% 0 in 0.00 W/m2 unknown
06:29 28.4 °F 23 °F 30.3 in SW 3.1 mph 3.7 mph 82% 0 in 0.00 W/m2 unknown
06:34 28.4 °F 23 °F 30.3 in SW 3.1 mph 3.7 mph 82% 0 in 0.00 W/m2 unknown
06:39 28.4 °F 24.8 °F 30.3 in WSW 3.1 mph 3.7 mph 82% 0 in 0.00 W/m2 unknown
06:44 28.4 °F 24.8 °F 30.3 in WSW 3.1 mph 3.7 mph 82% 0 in 0.00 W/m2 unknown
06:49 28.4 °F 24.8 °F 30.3 in WSW 2.5 mph 3.7 mph 82% 0 in 0.00 W/m2 unknown
06:54 28.4 °F 24.8 °F 30.3 in WSW 2.5 mph 3.7 mph 82% 0 in 0.00 W/m2 unknown
06:59 28.4 °F 23 °F 30.3 in West 2.5 mph 3.7 mph 82% 0 in 5.00 W/m2 unknown
07:04 28.4 °F 24.8 °F 30.3 in West 2.5 mph 3.7 mph 82% 0 in 7.00 W/m2 unknown
07:09 28.4 °F 24.8 °F 30.3 in West 1.9 mph 3.7 mph 83% 0 in 9.00 W/m2 unknown
07:14 30.2 °F 24.8 °F 30.3 in West 1.2 mph 3.1 mph 82% 0 in 12.00 W/m2 unknown
07:19 30.2 °F 24.8 °F 30.3 in West 1.2 mph 2.5 mph 82% 0 in 16.00 W/m2 unknown
07:24 28.4 °F 24.8 °F 30.3 in West 1.9 mph 2.5 mph 82% 0 in 19.00 W/m2 unknown
07:29 28.4 °F 24.8 °F 30.3 in WSW 1.9 mph 3.7 mph 83% 0 in 25.00 W/m2 unknown
07:34 28.4 °F 24.8 °F 30.3 in WSW 1.9 mph 3.7 mph 83% 0 in 30.00 W/m2 unknown
07:39 28.4 °F 24.8 °F 30.3 in WSW 1.9 mph 3.7 mph 83% 0 in 40.00 W/m2 unknown
07:44 30.2 °F 24.8 °F 30.3 in West 1.2 mph 3.1 mph 83% 0 in 51.00 W/m2 unknown
07:49 30.2 °F 24.8 °F 30.3 in WSW 1.2 mph 2.5 mph 82% 0 in 60.00 W/m2 unknown
07:54 30.2 °F 24.8 °F 30.3 in WSW 1.9 mph 2.5 mph 82% 0 in 77.00 W/m2 unknown
07:59 30.2 °F 26.6 °F 30.3 in WSW 2.5 mph 3.7 mph 82% 0 in 90.00 W/m2 unknown
08:04 32 °F 26.6 °F 30.3 in WSW 2.5 mph 3.7 mph 82% 0 in 105.00 W/m2 unknown
08:09 32 °F 26.6 °F 30.3 in WSW 2.5 mph 3.7 mph 81% 0 in 118.00 W/m2 unknown
08:14 32 °F 26.6 °F 30.3 in WSW 2.5 mph 3.7 mph 81% 0 in 135.00 W/m2 unknown
08:19 32 °F 28.4 °F 30.3 in WSW 2.5 mph 3.7 mph 82% 0 in 151.00 W/m2 unknown
08:24 33.8 °F 28.4 °F 30.3 in WSW 3.1 mph 3.7 mph 81% 0 in 167.00 W/m2 unknown
08:29 33.8 °F 28.4 °F 30.3 in WSW 3.1 mph 3.7 mph 80% 0 in 183.00 W/m2 unknown
08:34 33.8 °F 28.4 °F 30.3 in WSW 2.5 mph 3.7 mph 80% 0 in 197.00 W/m2 unknown
08:39 33.8 °F 28.4 °F 30.3 in WSW 2.5 mph 3.7 mph 79% 0 in 213.00 W/m2 unknown
08:44 35.6 °F 30.2 °F 30.3 in WSW 1.2 mph 3.1 mph 80% 0 in 223.00 W/m2 unknown
08:49 35.6 °F 30.2 °F 30.3 in WSW 0.6 mph 1.9 mph 79% 0 in 237.00 W/m2 unknown
08:54 37.4 °F 30.2 °F 30.3 in Calm   1.2 mph 79% 0 in 251.00 W/m2 unknown
08:59 37.4 °F 30.2 °F 30.3 in WSW 0.6 mph 2.5 mph 78% 0 in 265.00 W/m2 unknown
09:04 37.4 °F 30.2 °F 30.3 in WSW 1.9 mph 3.7 mph 78% 0 in 279.00 W/m2 unknown
09:09 37.4 °F 32 °F 30.3 in SW 1.9 mph 3.1 mph 76% 0 in 292.00 W/m2 unknown
09:14 39.2 °F 32 °F 30.3 in SW 1.9 mph 3.7 mph 76% 0 in 306.00 W/m2 unknown
09:19 39.2 °F 32 °F 30.3 in SW 1.9 mph 3.1 mph 75% 0 in 316.00 W/m2 unknown
09:24 41 °F 32 °F 30.3 in SW 1.9 mph 3.7 mph 74% 0 in 329.00 W/m2 unknown
09:29 41 °F 32 °F 30.3 in SW 2.5 mph 3.7 mph 73% 0 in 343.00 W/m2 unknown
09:34 41 °F 33.8 °F 30.3 in SW 2.5 mph 3.7 mph 72% 0 in 355.00 W/m2 unknown
09:39 42.8 °F 33.8 °F 30.3 in SSW 2.5 mph 3.7 mph 73% 0 in 367.00 W/m2 unknown
09:44 42.8 °F 33.8 °F 30.3 in SSW 2.5 mph 3.7 mph 72% 0 in 380.00 W/m2 unknown
09:49 42.8 °F 33.8 °F 30.3 in SW 3.1 mph 3.7 mph 71% 0 in 394.00 W/m2 unknown
09:54 42.8 °F 33.8 °F 30.3 in SSW 2.5 mph 3.7 mph 70% 0 in 404.00 W/m2 unknown
09:59 44.6 °F 33.8 °F 30.3 in SSW 2.5 mph 3.7 mph 68% 0 in 413.00 W/m2 unknown
10:04 44.6 °F 33.8 °F 30.3 in SSW 2.5 mph 3.7 mph 68% 0 in 425.00 W/m2 unknown
10:09 44.6 °F 35.6 °F 30.3 in SSW 2.5 mph 3.7 mph 68% 0 in 438.00 W/m2 unknown
10:14 46.4 °F 33.8 °F 30.3 in SW 2.5 mph 3.7 mph 65% 0 in 446.00 W/m2 unknown
10:19 46.4 °F 33.8 °F 30.3 in WSW 1.9 mph 3.7 mph 65% 0 in 459.00 W/m2 unknown
10:24 46.4 °F 33.8 °F 30.3 in South 1.9 mph 3.7 mph 63% 0 in 468.00 W/m2 unknown
10:29 46.4 °F 35.6 °F 30.3 in SW 3.7 mph 5 mph 63% 0 in 475.00 W/m2 unknown
10:34 46.4 °F 33.8 °F 30.3 in SW 3.7 mph 5 mph 61% 0 in 485.00 W/m2 unknown
10:39 46.4 °F 33.8 °F 30.3 in SW 2.5 mph 5 mph 61% 0 in 496.00 W/m2 unknown
10:44 48.2 °F 33.8 °F 30.3 in WSW 4.3 mph 6.2 mph 60% 0 in 504.00 W/m2 unknown
10:49 48.2 °F 33.8 °F 30.3 in West 3.1 mph 6.2 mph 57% 0 in 513.00 W/m2 unknown
10:54 48.2 °F 33.8 °F 30.3 in SW 4.3 mph 6.2 mph 57% 0 in 520.00 W/m2 unknown
10:59 48.2 °F 33.8 °F 30.3 in WSW 5 mph 6.2 mph 55% 0 in 527.00 W/m2 unknown
11:04 48.2 °F 33.8 °F 30.3 in WSW 5 mph 8.1 mph 56% 0 in 536.00 W/m2 unknown
11:09 48.2 °F 33.8 °F 30.3 in West 5.6 mph 8.7 mph 56% 0 in 541.00 W/m2 unknown
11:14 50 °F 32 °F 30.3 in WSW 6.2 mph 9.3 mph 52% 0 in 548.00 W/m2 unknown
11:19 50 °F 33.8 °F 30.3 in West 5 mph 8.7 mph 52% 0 in 555.00 W/m2 unknown
11:24 50 °F 32 °F 30.3 in West 6.2 mph 8.7 mph 51% 0 in 561.00 W/m2 unknown
11:29 50 °F 33.8 °F 30.3 in WSW 6.2 mph 9.3 mph 52% 0 in 566.00 W/m2 unknown
11:34 50 °F 32 °F 30.3 in WSW 8.7 mph 10.6 mph 51% 0 in 573.00 W/m2 unknown
11:39 50 °F 33.8 °F 30.3 in WSW 8.1 mph 10.6 mph 52% 0 in 575.00 W/m2 unknown
11:44 50 °F 33.8 °F 30.3 in WSW 6.8 mph 9.9 mph 51% 0 in 580.00 W/m2 unknown
11:49 50 °F 32 °F 30.3 in WSW 7.5 mph 11.8 mph 51% 0 in 585.00 W/m2 unknown
11:54 50 °F 33.8 °F 30.3 in WSW 8.7 mph 11.8 mph 51% 0 in 589.00 W/m2 unknown
11:59 51.8 °F 33.8 °F 30.3 in WSW 7.5 mph 9.9 mph 51% 0 in 592.00 W/m2 unknown
12:04 51.8 °F 33.8 °F 30.3 in West 9.3 mph 11.8 mph 51% 0 in 592.00 W/m2 unknown
12:09 51.8 °F 33.8 °F 30.3 in West 9.9 mph 13 mph 50% 0 in 598.00 W/m2 unknown
12:14 51.8 °F 33.8 °F 30.3 in WSW 9.3 mph 13 mph 51% 0 in 601.00 W/m2 unknown
12:19 51.8 °F 33.8 °F 30.3 in WSW 9.9 mph 11.8 mph 49% 0 in 601.00 W/m2 unknown
12:24 51.8 °F 33.8 °F 30.3 in West 8.1 mph 11.8 mph 49% 0 in 598.00 W/m2 unknown
12:29 51.8 °F 33.8 °F 30.3 in West 8.1 mph 11.8 mph 49% 0 in 599.00 W/m2 unknown
12:34 51.8 °F 32 °F 30.3 in West 8.1 mph 9.9 mph 47% 0 in 601.00 W/m2 unknown
12:39 51.8 °F 32 °F 30.3 in WSW 8.7 mph 11.8 mph 47% 0 in 603.00 W/m2 unknown
12:44 51.8 °F 32 °F 30.3 in West 9.3 mph 11.8 mph 46% 0 in 603.00 W/m2 unknown
12:49 53.6 °F 32 °F 30.3 in West 8.7 mph 11.8 mph 46% 0 in 601.00 W/m2 unknown
12:54 53.6 °F 32 °F 30.3 in West 6.8 mph 11.8 mph 45% 0 in 601.00 W/m2 unknown
12:59 53.6 °F 32 °F 30.3 in WSW 8.1 mph 11.2 mph 46% 0 in 598.00 W/m2 unknown
13:04 53.6 °F 32 °F 30.3 in WSW 8.1 mph 11.8 mph 46% 0 in 599.00 W/m2 unknown
13:09 53.6 °F 32 °F 30.3 in WSW 8.7 mph 13 mph 45% 0 in 594.00 W/m2 unknown
13:14 53.6 °F 32 °F 30.3 in WSW 9.9 mph 13 mph 44% 0 in 596.00 W/m2 unknown
13:19 53.6 °F 30.2 °F 30.3 in WNW 6.2 mph 13 mph 42% 0 in 591.00 W/m2 unknown
13:24 53.6 °F 30.2 °F 30.3 in West 6.8 mph 9.3 mph 42% 0 in 591.00 W/m2 unknown
13:29 53.6 °F 30.2 °F 30.3 in WSW 6.2 mph 8.7 mph 42% 0 in 585.00 W/m2 unknown
13:34 53.6 °F 30.2 °F 30.3 in SW 5.6 mph 8.1 mph 42% 0 in 585.00 W/m2 unknown
13:39 53.6 °F 32 °F 30.3 in West 8.1 mph 13 mph 43% 0 in 575.00 W/m2 unknown
13:44 53.6 °F 30.2 °F 30.3 in WNW 8.1 mph 13 mph 40% 0 in 571.00 W/m2 unknown
13:49 53.6 °F 30.2 °F 30.3 in WNW 3.7 mph 9.9 mph 40% 0 in 568.00 W/m2 unknown
13:54 53.6 °F 30.2 °F 30.3 in WSW 7.5 mph 9.3 mph 41% 0 in 561.00 W/m2 unknown
13:59 53.6 °F 30.2 °F 30.3 in West 6.8 mph 8.7 mph 41% 0 in 555.00 W/m2 unknown
14:04 53.6 °F 30.2 °F 30.3 in West 4.3 mph 8.1 mph 39% 0 in 554.00 W/m2 unknown
14:09 53.6 °F 32 °F 30.2 in WSW 8.1 mph 11.8 mph 42% 0 in 543.00 W/m2 unknown
14:14 53.6 °F 30.2 °F 30.2 in West 8.1 mph 11.8 mph 41% 0 in 540.00 W/m2 unknown
14:19 53.6 °F 30.2 °F 30.2 in SW 5 mph 8.1 mph 41% 0 in 533.00 W/m2 unknown
14:24 55.4 °F 32 °F 30.2 in SW 5.6 mph 9.3 mph 41% 0 in 526.00 W/m2 unknown
14:29 55.4 °F 32 °F 30.2 in SW 4.3 mph 8.7 mph 41% 0 in 519.00 W/m2 unknown
14:34 55.4 °F 30.2 °F 30.2 in WSW 5 mph 8.1 mph 40% 0 in 513.00 W/m2 unknown
14:39 55.4 °F 32 °F 30.2 in SW 3.7 mph 5 mph 41% 0 in 499.00 W/m2 unknown
14:44 55.4 °F 32 °F 30.2 in SSW 3.7 mph 6.2 mph 42% 0 in 490.00 W/m2 unknown
14:49 53.6 °F 30.2 °F 30.2 in WSW 5 mph 6.8 mph 40% 0 in 483.00 W/m2 unknown
14:54 53.6 °F 30.2 °F 30.2 in WSW 5.6 mph 6.8 mph 41% 0 in 475.00 W/m2 unknown
14:59 53.6 °F 30.2 °F 30.2 in SW 5 mph 6.8 mph 40% 0 in 462.00 W/m2 unknown
15:04 53.6 °F 30.2 °F 30.2 in SSW 6.2 mph 9.3 mph 39% 0 in 450.00 W/m2 unknown
15:09 53.6 °F 30.2 °F 30.2 in WSW 3.1 mph 8.7 mph 40% 0 in 439.00 W/m2 unknown
15:14 55.4 °F 30.2 °F 30.2 in SSW 6.2 mph 8.1 mph 39% 0 in 429.00 W/m2 unknown
15:19 53.6 °F 30.2 °F 30.2 in SSW 3.7 mph 8.1 mph 39% 0 in 420.00 W/m2 unknown
15:24 53.6 °F 30.2 °F 30.2 in South 3.7 mph 5 mph 40% 0 in 410.00 W/m2 unknown
15:29 53.6 °F 30.2 °F 30.2 in SSE 1.9 mph 5 mph 41% 0 in 396.00 W/m2 unknown
15:34 53.6 °F 30.2 °F 30.2 in SSE 2.5 mph 3.7 mph 40% 0 in 383.00 W/m2 unknown
15:39 55.4 °F 30.2 °F 30.2 in West 3.7 mph 5 mph 39% 0 in 371.00 W/m2 unknown
15:44 53.6 °F 28.4 °F 30.2 in WNW 3.1 mph 5 mph 38% 0 in 364.00 W/m2 unknown
15:49 55.4 °F 30.2 °F 30.2 in WSW 1.2 mph 3.1 mph 40% 0 in 350.00 W/m2 unknown
15:54 55.4 °F 30.2 °F 30.2 in WSW 3.7 mph 5 mph 40% 0 in 336.00 W/m2 unknown
15:59 55.4 °F 30.2 °F 30.2 in WSW 3.7 mph 5 mph 39% 0 in 325.00 W/m2 unknown
16:04 55.4 °F 30.2 °F 30.2 in SW 3.1 mph 5 mph 39% 0 in 311.00 W/m2 unknown
16:09 55.4 °F 30.2 °F 30.2 in SSW 3.1 mph 3.7 mph 39% 0 in 297.00 W/m2 unknown
16:14 53.6 °F 30.2 °F 30.2 in WSW 3.7 mph 3.7 mph 40% 0 in 283.00 W/m2 unknown
16:19 53.6 °F 30.2 °F 30.2 in WSW 4.3 mph 5 mph 39% 0 in 267.00 W/m2 unknown
16:24 53.6 °F 30.2 °F 30.2 in WSW 3.1 mph 5 mph 39% 0 in 253.00 W/m2 unknown
16:29 53.6 °F 30.2 °F 30.2 in SW 2.5 mph 5 mph 39% 0 in 241.00 W/m2 unknown
16:34 53.6 °F 28.4 °F 30.2 in SW 1.9 mph 3.7 mph 39% 0 in 225.00 W/m2 unknown
16:39 53.6 °F 30.2 °F 30.2 in NW 1.9 mph 3.1 mph 40% 0 in 209.00 W/m2 unknown
16:44 53.6 °F 30.2 °F 30.2 in Calm   1.9 mph 40% 0 in 193.00 W/m2 unknown
16:49 53.6 °F 30.2 °F 30.2 in East 1.9 mph 3.7 mph 41% 0 in 179.00 W/m2 unknown
16:54 53.6 °F 30.2 °F 30.2 in ESE 2.5 mph 3.7 mph 40% 0 in 163.00 W/m2 unknown
16:59 53.6 °F 28.4 °F 30.2 in ESE 2.5 mph 3.7 mph 39% 0 in 146.00 W/m2 unknown
17:04 53.6 °F 30.2 °F 30.2 in East 5 mph 6.8 mph 40% 0 in 128.00 W/m2 unknown
17:09 53.6 °F 30.2 °F 30.2 in ESE 3.7 mph 6.8 mph 40% 0 in 113.00 W/m2 unknown
17:14 53.6 °F 30.2 °F 30.2 in ENE 5 mph 6.8 mph 41% 0 in 97.00 W/m2 unknown
17:19 53.6 °F 30.2 °F 30.2 in East 5 mph 6.8 mph 42% 0 in 83.00 W/m2 unknown
17:24 53.6 °F 30.2 °F 30.2 in East 3.1 mph 6.8 mph 43% 0 in 72.00 W/m2 unknown
17:29 51.8 °F 30.2 °F 30.2 in ESE 3.7 mph 5 mph 44% 0 in 58.00 W/m2 unknown
17:34 51.8 °F 30.2 °F 30.2 in ESE 5 mph 6.8 mph 44% 0 in 47.00 W/m2 unknown
17:39 51.8 °F 30.2 °F 30.2 in East 5 mph 6.8 mph 45% 0 in 32.00 W/m2 unknown
17:44 51.8 °F 30.2 °F 30.2 in East 6.2 mph 8.1 mph 46% 0 in 26.00 W/m2 unknown
17:49 51.8 °F 30.2 °F 30.2 in ESE 6.2 mph 8.7 mph 47% 0 in 19.00 W/m2 unknown
17:54 50 °F 32 °F 30.2 in East 6.2 mph 9.3 mph 49% 0 in 12.00 W/m2 unknown
17:59 50 °F 30.2 °F 30.2 in East 6.2 mph 8.7 mph 48% 0 in 9.00 W/m2 unknown
18:04 50 °F 30.2 °F 30.2 in ESE 6.2 mph 9.3 mph 48% 0 in 5.00 W/m2 unknown
18:09 50 °F 30.2 °F 30.2 in ESE 5.6 mph 8.1 mph 49% 0 in 0.00 W/m2 unknown
18:14 48.2 °F 30.2 °F 30.2 in ESE 5.6 mph 8.1 mph 50% 0 in 0.00 W/m2 unknown
18:19 48.2 °F 32 °F 30.2 in East 5.6 mph 8.1 mph 51% 0 in 0.00 W/m2 unknown
18:24 48.2 °F 32 °F 30.2 in East 5.6 mph 8.1 mph 52% 0 in 0.00 W/m2 unknown
18:29 48.2 °F 30.2 °F 30.2 in East 6.8 mph 8.1 mph 52% 0 in 0.00 W/m2 unknown
18:34 48.2 °F 32 °F 30.3 in East 6.8 mph 8.1 mph 53% 0 in 0.00 W/m2 unknown
18:39 48.2 °F 32 °F 30.3 in East 6.2 mph 8.7 mph 53% 0 in 0.00 W/m2 unknown
18:44 46.4 °F 32 °F 30.3 in East 6.2 mph 9.3 mph 54% 0 in 0.00 W/m2 unknown
18:49 46.4 °F 32 °F 30.3 in East 6.8 mph 9.3 mph 54% 0 in 0.00 W/m2 unknown
18:54 46.4 °F 32 °F 30.3 in East 6.8 mph 9.3 mph 55% 0 in 0.00 W/m2 unknown
18:59 46.4 °F 32 °F 30.3 in East 8.1 mph 11.2 mph 55% 0 in 0.00 W/m2 unknown
19:04 46.4 °F 32 °F 30.3 in East 9.3 mph 11.8 mph 55% 0 in 0.00 W/m2 unknown
19:09 46.4 °F 32 °F 30.3 in East 9.3 mph 11.8 mph 56% 0 in 0.00 W/m2 unknown
19:14 46.4 °F 32 °F 30.3 in East 8.7 mph 11.8 mph 57% 0 in 0.00 W/m2 unknown
19:19 46.4 °F 33.8 °F 30.3 in East 16.2 mph 24.2 mph 58% 0 in 0.00 W/m2 unknown
19:24 46.4 °F 33.8 °F 30.3 in ESE 18 mph 24.2 mph 62% 0 in 0.00 W/m2 unknown
19:29 46.4 °F 33.8 °F 30.3 in ESE 18 mph 26.7 mph 61% 0 in 0.00 W/m2 unknown
19:34 46.4 °F 33.8 °F 30.3 in ESE 20.5 mph 25.5 mph 62% 0 in 0.00 W/m2 unknown
19:39 46.4 °F 33.8 °F 30.3 in East 13 mph 24.9 mph 64% 0 in 0.00 W/m2 unknown
19:44 46.4 °F 35.6 °F 30.3 in ESE 16.2 mph 21.1 mph 65% 0 in 0.00 W/m2 unknown
19:49 46.4 °F 35.6 °F 30.3 in ESE 15.5 mph 23 mph 65% 0 in 0.00 W/m2 unknown
19:54 46.4 °F 35.6 °F 30.3 in ESE 16.8 mph 23 mph 66% 0 in 0.00 W/m2 unknown
19:59 46.4 °F 35.6 °F 30.3 in ESE 14.9 mph 21.7 mph 66% 0 in 0.00 W/m2 unknown
20:04 44.6 °F 35.6 °F 30.3 in ESE 14.3 mph 19.9 mph 67% 0 in 0.00 W/m2 unknown
20:09 44.6 °F 35.6 °F 30.3 in ESE 12.4 mph 17.4 mph 67% 0 in 0.00 W/m2 unknown
20:14 44.6 °F 35.6 °F 30.3 in ESE 11.8 mph 17.4 mph 68% 0 in 0.00 W/m2 unknown
20:19 44.6 °F 33.8 °F 30.3 in ESE 13 mph 17.4 mph 68% 0 in 0.00 W/m2 unknown
20:24 44.6 °F 35.6 °F 30.3 in ESE 14.3 mph 18.6 mph 69% 0 in 0.00 W/m2 unknown
20:29 44.6 °F 35.6 °F 30.3 in East 13 mph 18.6 mph 70% 0 in 0.00 W/m2 unknown
20:34 44.6 °F 35.6 °F 30.3 in East 11.2 mph 17.4 mph 70% 0 in 0.00 W/m2 unknown
20:39 44.6 °F 35.6 °F 30.3 in East 11.2 mph 16.8 mph 71% 0 in 0.00 W/m2 unknown
20:44 42.8 °F 35.6 °F 30.3 in ESE 11.8 mph 14.9 mph 71% 0 in 0.00 W/m2 unknown
20:49 42.8 °F 35.6 °F 30.3 in East 10.6 mph 14.9 mph 71% 0 in 0.00 W/m2 unknown
20:54 42.8 °F 35.6 °F 30.3 in East 11.2 mph 16.2 mph 71% 0 in 0.00 W/m2 unknown
20:59 42.8 °F 35.6 °F 30.3 in East 10.6 mph 18 mph 71% 0 in 0.00 W/m2 unknown
21:04 42.8 °F 33.8 °F 30.3 in East 11.2 mph 14.9 mph 71% 0 in 0.00 W/m2 unknown
21:09 42.8 °F 33.8 °F 30.3 in East 12.4 mph 16.2 mph 71% 0 in 0.00 W/m2 unknown
21:14 42.8 °F 33.8 °F 30.3 in East 12.4 mph 17.4 mph 71% 0 in 0.00 W/m2 unknown
21:19 42.8 °F 33.8 °F 30.4 in East 11.8 mph 17.4 mph 71% 0 in 0.00 W/m2 unknown
21:24 42.8 °F 33.8 °F 30.4 in East 9.3 mph 16.2 mph 72% 0 in 0.00 W/m2 unknown
21:29 42.8 °F 33.8 °F 30.4 in East 9.3 mph 14.3 mph 72% 0 in 0.00 W/m2 unknown
21:34 42.8 °F 33.8 °F 30.4 in East 9.3 mph 13 mph 73% 0 in 0.00 W/m2 unknown
21:39 42.8 °F 33.8 °F 30.4 in East 9.3 mph 13 mph 73% 0 in 0.00 W/m2 unknown
21:44 42.8 °F 33.8 °F 30.4 in East 13.7 mph 19.3 mph 73% 0 in 0.00 W/m2 unknown
21:49 42.8 °F 33.8 °F 30.4 in East 14.3 mph 19.9 mph 73% 0 in 0.00 W/m2 unknown
21:54 42.8 °F 35.6 °F 30.4 in East 11.2 mph 19.9 mph 72% 0 in 0.00 W/m2 unknown
21:59 42.8 °F 35.6 °F 30.4 in East 9.9 mph 14.9 mph 72% 0 in 0.00 W/m2 unknown
22:04 42.8 °F 35.6 °F 30.4 in East 9.9 mph 14.9 mph 72% 0 in 0.00 W/m2 unknown
22:09 42.8 °F 35.6 °F 30.4 in East 9.9 mph 14.9 mph 72% 0 in 0.00 W/m2 unknown
22:14 42.8 °F 35.6 °F 30.4 in East 8.7 mph 14.3 mph 73% 0 in 0.00 W/m2 unknown
22:19 42.8 °F 35.6 °F 30.4 in East 11.8 mph 14.9 mph 72% 0 in 0.00 W/m2 unknown
22:24 42.8 °F 35.6 °F 30.4 in East 11.2 mph 17.4 mph 72% 0 in 0.00 W/m2 unknown
22:29 42.8 °F 33.8 °F 30.4 in East 12.4 mph 16.8 mph 71% 0 in 0.00 W/m2 unknown
22:34 42.8 °F 33.8 °F 30.4 in ESE 17.4 mph 26.7 mph 71% 0 in 0.00 W/m2 unknown
22:39 44.6 °F 33.8 °F 30.4 in East 21.1 mph 26.7 mph 67% 0 in 0.00 W/m2 unknown
22:44 44.6 °F 32 °F 30.4 in East 21.1 mph 29.2 mph 64% 0 in 0.00 W/m2 unknown
22:49 44.6 °F 32 °F 30.4 in East 16.2 mph 29.2 mph 63% 0 in 0.00 W/m2 unknown
22:54 44.6 °F 32 °F 30.4 in East 16.8 mph 25.5 mph 63% 0 in 0.00 W/m2 unknown
22:59 42.8 °F 32 °F 30.4 in East 19.3 mph 26.7 mph 63% 0 in 0.00 W/m2 unknown
23:04 44.6 °F 32 °F 30.4 in East 20.5 mph 29.2 mph 62% 0 in 0.00 W/m2 unknown
23:09 42.8 °F 32 °F 30.4 in East 18 mph 29.2 mph 62% 0 in 0.00 W/m2 unknown
23:14 42.8 °F 32 °F 30.4 in East 15.5 mph 26.1 mph 63% 0 in 0.00 W/m2 unknown
23:19 42.8 °F 32 °F 30.4 in East 19.3 mph 24.2 mph 63% 0 in 0.00 W/m2 unknown
23:24 42.8 °F 32 °F 30.4 in East 16.2 mph 24.2 mph 63% 0 in 0.00 W/m2 unknown
23:29 42.8 °F 32 °F 30.4 in East 15.5 mph 19.9 mph 64% 0 in 0.00 W/m2 unknown
23:34 42.8 °F 32 °F 30.4 in East 16.2 mph 21.7 mph 63% 0 in 0.00 W/m2 unknown
23:39 42.8 °F 30.2 °F 30.4 in East 13 mph 21.7 mph 62% 0 in 0.00 W/m2 unknown
23:44 42.8 °F 30.2 °F 30.4 in East 12.4 mph 19.9 mph 62% 0 in 0.00 W/m2 unknown
23:49 42.8 °F 30.2 °F 30.4 in ENE 12.4 mph 19.9 mph 62% 0 in 0.00 W/m2 unknown
23:54 42.8 °F 30.2 °F 30.4 in ENE 14.9 mph 21.7 mph 61% 0 in 0.00 W/m2 unknown
23:59 42.8 °F 28.4 °F 30.4 in East 13.7 mph 21.7 mph 59% 0 in 0.00 W/m2 unknown
Stazione Meteorologica MeteoMincio Rivalta s/M (MN)
Con i complimenti di Weather Underground - 4 mb



METEO PILLOLE
Temperatura più bassa in montagna in Italia
Busa Fradusta (2.606m) Pale di San Martino - Trento
-48.3°C il 27 Dicembre 2010.
Share

Non seguire questo link o sarai bannato dal sito!